Itapoa, Brazil
Current Conditions -  °F | °C
As of 7:40 AM on Monday 22 Dec 2014 (Local Time) from SBJV Reporting Station
Light Rain Light Rain  
Wind Chill: 75°   Ceiling: 600
Heat Index: 75°   Visibility: 2.5mi
Dew Point: 73°   Wind: 5mph
Humidity: 94%   Direction: 160°SSE
Pressure: 29.77"   Gusts: NA
Location:  26.12°S, 48.62°W
Report Text: SBJV 220940Z 16004KT 4000 -RA BKN006 BKN010 OVC050 24/23 Q1008
Loading
Personal Weather Stations






























Interactive Weather Map New forecast layout! Learn more

10-Day Weather Forecast

Advertisements
Track Severe Weather on mobile